sensor_id;sensor_type;location;lat;lon;timestamp;pressure;altitude;pressure_sealevel;temperature;humidity
54146;BME280;65909;49.422;7.738;2023-04-09T00:02:12;77267.53;;;-145.25;68.69
54146;BME280;65909;49.422;7.738;2023-04-09T00:04:37;77279.56;;;-145.25;68.62
54146;BME280;65909;49.422;7.738;2023-04-09T00:07:02;77273.53;;;-145.25;68.51
54146;BME280;65909;49.422;7.738;2023-04-09T00:09:28;77283.56;;;-145.25;69.33
54146;BME280;65909;49.422;7.738;2023-04-09T00:11:53;77291.59;;;-145.25;68.75
54146;BME280;65909;49.422;7.738;2023-04-09T00:14:18;77271.53;;;-145.25;68.56
54146;BME280;65909;49.422;7.738;2023-04-09T00:16:44;77253.47;;;-145.25;68.46
54146;BME280;65909;49.422;7.738;2023-04-09T00:19:09;77263.50;;;-145.25;68.78
54146;BME280;65909;49.422;7.738;2023-04-09T00:21:36;77261.50;;;-145.25;68.86
54146;BME280;65909;49.422;7.738;2023-04-09T00:24:01;77283.56;;;-145.25;68.73
54146;BME280;65909;49.422;7.738;2023-04-09T00:26:26;77277.53;;;-145.25;68.80
54146;BME280;65909;49.422;7.738;2023-04-09T00:28:52;77283.56;;;-145.25;69.59
54146;BME280;65909;49.422;7.738;2023-04-09T00:31:17;77281.56;;;-145.25;69.39
54146;BME280;65909;49.422;7.738;2023-04-09T00:33:42;77281.56;;;-145.25;69.70
54146;BME280;65909;49.422;7.738;2023-04-09T00:36:08;77269.53;;;-145.25;69.51
54146;BME280;65909;49.422;7.738;2023-04-09T00:38:34;77293.59;;;-145.25;69.76
54146;BME280;65909;49.422;7.738;2023-04-09T00:40:59;77279.56;;;-145.25;69.83
54146;BME280;65909;49.422;7.738;2023-04-09T00:43:25;77263.50;;;-145.25;69.95
54146;BME280;65909;49.422;7.738;2023-04-09T00:45:51;77261.50;;;-145.25;70.31
54146;BME280;65909;49.422;7.738;2023-04-09T00:48:16;77261.50;;;-145.25;69.91
54146;BME280;65909;49.422;7.738;2023-04-09T00:50:42;77271.53;;;-145.25;70.44
54146;BME280;65909;49.422;7.738;2023-04-09T00:53:08;77267.53;;;-145.25;70.09
54146;BME280;65909;49.422;7.738;2023-04-09T00:55:35;77275.53;;;-145.25;69.74
54146;BME280;65909;49.422;7.738;2023-04-09T00:58:01;77283.56;;;-145.25;70.72
54146;BME280;65909;49.422;7.738;2023-04-09T01:00:26;77267.53;;;-145.25;70.60
54146;BME280;65909;49.422;7.738;2023-04-09T01:02:52;77271.53;;;-145.25;69.85
54146;BME280;65909;49.422;7.738;2023-04-09T01:05:20;77277.53;;;-145.25;70.04
54146;BME280;65909;49.422;7.738;2023-04-09T01:08:02;77309.63;;;-145.25;70.56
54146;BME280;65909;49.422;7.738;2023-04-09T01:10:42;77289.56;;;-145.25;70.55
54146;BME280;65909;49.422;7.738;2023-04-09T01:13:38;77273.53;;;-145.25;70.00
54146;BME280;65909;49.422;7.738;2023-04-09T01:16:06;77271.53;;;-145.25;69.75
54146;BME280;65909;49.422;7.738;2023-04-09T01:18:39;77275.53;;;-145.25;70.36
54146;BME280;65909;49.422;7.738;2023-04-09T01:21:15;77285.56;;;-145.25;70.46
54146;BME280;65909;49.422;7.738;2023-04-09T01:29:02;77291.59;;;-145.25;70.66
54146;BME280;65909;49.422;7.738;2023-04-09T01:31:31;77295.59;;;-145.25;71.10
54146;BME280;65909;49.422;7.738;2023-04-09T01:33:58;77315.66;;;-145.25;71.23
54146;BME280;65909;49.422;7.738;2023-04-09T01:36:25;77305.63;;;-145.25;71.30
54146;BME280;65909;49.422;7.738;2023-04-09T01:38:52;77319.66;;;-145.25;71.47
54146;BME280;65909;49.422;7.738;2023-04-09T01:41:21;77321.66;;;-145.25;71.43
54146;BME280;65909;49.422;7.738;2023-04-09T01:43:50;77329.69;;;-145.25;71.93
54146;BME280;65909;49.422;7.738;2023-04-09T01:46:17;77317.66;;;-145.25;72.18
54146;BME280;65909;49.422;7.738;2023-04-09T01:48:43;77319.66;;;-145.25;72.11
54146;BME280;65909;49.422;7.738;2023-04-09T01:51:09;77319.66;;;-145.25;71.30
54146;BME280;65909;49.422;7.738;2023-04-09T01:53:38;77311.63;;;-145.25;71.51
54146;BME280;65909;49.422;7.738;2023-04-09T01:56:04;77307.63;;;-145.25;71.44
54146;BME280;65909;49.422;7.738;2023-04-09T01:58:30;77315.66;;;-145.25;71.58
54146;BME280;65909;49.422;7.738;2023-04-09T02:01:15;77313.63;;;-145.25;71.92
54146;BME280;65909;49.422;7.738;2023-04-09T02:03:47;77317.66;;;-145.25;71.41
54146;BME280;65909;49.422;7.738;2023-04-09T02:08:57;77315.66;;;-145.25;71.51
54146;BME280;65909;49.422;7.738;2023-04-09T02:11:26;77311.63;;;-145.25;71.49
54146;BME280;65909;49.422;7.738;2023-04-09T02:13:53;77313.63;;;-145.25;71.24
54146;BME280;65909;49.422;7.738;2023-04-09T02:16:22;77333.69;;;-145.25;72.02
54146;BME280;65909;49.422;7.738;2023-04-09T02:18:52;77315.66;;;-145.25;71.91
54146;BME280;65909;49.422;7.738;2023-04-09T02:21:18;77329.69;;;-145.25;72.63
54146;BME280;65909;49.422;7.738;2023-04-09T02:23:43;77339.72;;;-145.25;71.90
54146;BME280;65909;49.422;7.738;2023-04-09T02:26:09;77323.66;;;-145.25;72.56
54146;BME280;65909;49.422;7.738;2023-04-09T02:28:34;77321.66;;;-145.25;72.18
54146;BME280;65909;49.422;7.738;2023-04-09T02:30:59;77329.69;;;-145.25;72.32
54146;BME280;65909;49.422;7.738;2023-04-09T02:33:25;77327.69;;;-145.25;72.12
54146;BME280;65909;49.422;7.738;2023-04-09T02:35:50;77327.69;;;-145.25;72.65
54146;BME280;65909;49.422;7.738;2023-04-09T02:38:16;77327.69;;;-145.25;71.89
54146;BME280;65909;49.422;7.738;2023-04-09T02:40:41;77311.63;;;-145.25;72.27
54146;BME280;65909;49.422;7.738;2023-04-09T02:43:07;77319.66;;;-145.25;72.43
54146;BME280;65909;49.422;7.738;2023-04-09T02:45:33;77331.69;;;-145.25;72.20
54146;BME280;65909;49.422;7.738;2023-04-09T02:47:58;77335.69;;;-145.25;72.54
54146;BME280;65909;49.422;7.738;2023-04-09T02:50:24;77319.66;;;-145.25;72.76
54146;BME280;65909;49.422;7.738;2023-04-09T02:52:49;77325.66;;;-145.25;72.58
54146;BME280;65909;49.422;7.738;2023-04-09T02:55:15;77323.66;;;-145.25;72.86
54146;BME280;65909;49.422;7.738;2023-04-09T02:57:40;77315.66;;;-145.25;72.31
54146;BME280;65909;49.422;7.738;2023-04-09T03:00:06;77319.66;;;-145.25;72.18
54146;BME280;65909;49.422;7.738;2023-04-09T03:02:32;77315.66;;;-145.25;72.15
54146;BME280;65909;49.422;7.738;2023-04-09T03:04:57;77319.66;;;-145.25;72.02
54146;BME280;65909;49.422;7.738;2023-04-09T03:07:23;77311.63;;;-145.25;71.94
54146;BME280;65909;49.422;7.738;2023-04-09T03:09:48;77319.66;;;-145.25;72.50
54146;BME280;65909;49.422;7.738;2023-04-09T03:12:13;77317.66;;;-145.25;72.52
54146;BME280;65909;49.422;7.738;2023-04-09T03:14:39;77313.63;;;-145.25;73.41
54146;BME280;65909;49.422;7.738;2023-04-09T03:17:04;77325.66;;;-145.25;72.65
54146;BME280;65909;49.422;7.738;2023-04-09T03:19:30;77339.72;;;-145.25;73.12
54146;BME280;65909;49.422;7.738;2023-04-09T03:21:55;77331.69;;;-145.25;73.68
54146;BME280;65909;49.422;7.738;2023-04-09T03:24:20;77323.66;;;-145.25;73.41
54146;BME280;65909;49.422;7.738;2023-04-09T03:26:46;77313.63;;;-145.25;73.28
54146;BME280;65909;49.422;7.738;2023-04-09T03:29:11;77321.66;;;-145.25;73.17
54146;BME280;65909;49.422;7.738;2023-04-09T03:31:36;77319.66;;;-145.25;73.65
54146;BME280;65909;49.422;7.738;2023-04-09T03:34:02;77323.66;;;-145.25;73.27
54146;BME280;65909;49.422;7.738;2023-04-09T03:36:27;77315.66;;;-145.25;73.86
54146;BME280;65909;49.422;7.738;2023-04-09T03:38:53;77325.66;;;-145.25;73.90
54146;BME280;65909;49.422;7.738;2023-04-09T03:41:18;77323.66;;;-145.25;73.48
54146;BME280;65909;49.422;7.738;2023-04-09T03:43:43;77333.69;;;-145.25;73.81
54146;BME280;65909;49.422;7.738;2023-04-09T03:46:16;77339.72;;;-145.25;74.02
54146;BME280;65909;49.422;7.738;2023-04-09T03:48:41;77333.69;;;-145.25;74.30
54146;BME280;65909;49.422;7.738;2023-04-09T03:51:12;77321.66;;;-145.25;74.20
54146;BME280;65909;49.422;7.738;2023-04-09T03:53:38;77323.66;;;-145.25;74.05
54146;BME280;65909;49.422;7.738;2023-04-09T03:56:04;77333.69;;;-145.25;74.17
54146;BME280;65909;49.422;7.738;2023-04-09T03:58:29;77327.69;;;-145.25;74.44
54146;BME280;65909;49.422;7.738;2023-04-09T04:00:55;77335.69;;;-145.25;74.70
54146;BME280;65909;49.422;7.738;2023-04-09T04:03:20;77323.66;;;-145.25;74.58
54146;BME280;65909;49.422;7.738;2023-04-09T04:05:45;77319.66;;;-145.25;74.39
54146;BME280;65909;49.422;7.738;2023-04-09T04:08:11;77319.66;;;-145.25;74.64
54146;BME280;65909;49.422;7.738;2023-04-09T04:10:36;77317.66;;;-145.25;74.45
54146;BME280;65909;49.422;7.738;2023-04-09T04:13:01;77319.66;;;-145.25;74.35
54146;BME280;65909;49.422;7.738;2023-04-09T04:15:27;77321.66;;;-145.25;74.96
54146;BME280;65909;49.422;7.738;2023-04-09T04:17:53;77333.69;;;-145.25;74.62
54146;BME280;65909;49.422;7.738;2023-04-09T04:20:19;77331.69;;;-145.25;75.29
54146;BME280;65909;49.422;7.738;2023-04-09T04:22:44;77327.69;;;-145.25;74.77
54146;BME280;65909;49.422;7.738;2023-04-09T04:25:09;77321.66;;;-145.25;75.09
54146;BME280;65909;49.422;7.738;2023-04-09T04:27:35;77335.69;;;-145.25;74.88
54146;BME280;65909;49.422;7.738;2023-04-09T04:30:00;77337.69;;;-145.25;75.46
54146;BME280;65909;49.422;7.738;2023-04-09T04:32:26;77335.69;;;-145.25;75.50
54146;BME280;65909;49.422;7.738;2023-04-09T04:34:52;77335.69;;;-145.25;75.43
54146;BME280;65909;49.422;7.738;2023-04-09T04:37:17;77341.72;;;-145.25;75.51
54146;BME280;65909;49.422;7.738;2023-04-09T04:39:43;77337.69;;;-145.25;75.36
54146;BME280;65909;49.422;7.738;2023-04-09T04:42:08;77351.75;;;-145.25;75.53
54146;BME280;65909;49.422;7.738;2023-04-09T04:44:33;77353.75;;;-145.25;76.07
54146;BME280;65909;49.422;7.738;2023-04-09T04:46:59;77349.75;;;-145.25;76.02
54146;BME280;65909;49.422;7.738;2023-04-09T04:49:24;77347.72;;;-145.25;76.01
54146;BME280;65909;49.422;7.738;2023-04-09T04:51:49;77341.72;;;-145.25;75.55
54146;BME280;65909;49.422;7.738;2023-04-09T04:54:15;77347.72;;;-145.25;75.47
54146;BME280;65909;49.422;7.738;2023-04-09T04:56:40;77333.69;;;-145.25;75.14
54146;BME280;65909;49.422;7.738;2023-04-09T04:59:06;77329.69;;;-145.25;74.89
54146;BME280;65909;49.422;7.738;2023-04-09T05:01:31;77339.72;;;-145.25;74.70
54146;BME280;65909;49.422;7.738;2023-04-09T05:03:56;77345.72;;;-145.25;75.20
54146;BME280;65909;49.422;7.738;2023-04-09T05:06:22;77331.69;;;-145.25;74.94
54146;BME280;65909;49.422;7.738;2023-04-09T05:08:47;77327.69;;;-145.25;75.29
54146;BME280;65909;49.422;7.738;2023-04-09T05:11:13;77331.69;;;-145.25;74.80
54146;BME280;65909;49.422;7.738;2023-04-09T05:13:39;77327.69;;;-145.25;75.17
54146;BME280;65909;49.422;7.738;2023-04-09T05:16:05;77341.72;;;-145.25;75.28
54146;BME280;65909;49.422;7.738;2023-04-09T05:18:31;77343.72;;;-145.25;75.49
54146;BME280;65909;49.422;7.738;2023-04-09T05:20:56;77349.75;;;-145.25;75.41
54146;BME280;65909;49.422;7.738;2023-04-09T05:23:22;77335.69;;;-145.25;75.59
54146;BME280;65909;49.422;7.738;2023-04-09T05:25:48;77327.69;;;-145.25;75.25
54146;BME280;65909;49.422;7.738;2023-04-09T05:28:13;77333.69;;;-145.25;74.88
54146;BME280;65909;49.422;7.738;2023-04-09T05:30:41;77325.66;;;-145.25;74.68
54146;BME280;65909;49.422;7.738;2023-04-09T05:33:09;77335.69;;;-145.25;74.83
54146;BME280;65909;49.422;7.738;2023-04-09T05:35:37;77337.69;;;-145.25;74.91
54146;BME280;65909;49.422;7.738;2023-04-09T05:38:03;77335.69;;;-145.25;75.01
54146;BME280;65909;49.422;7.738;2023-04-09T05:40:28;77339.72;;;-145.25;75.15
54146;BME280;65909;49.422;7.738;2023-04-09T05:42:53;77337.69;;;-145.25;74.75
54146;BME280;65909;49.422;7.738;2023-04-09T05:45:22;77329.69;;;-145.25;75.25
54146;BME280;65909;49.422;7.738;2023-04-09T05:47:47;77327.69;;;-145.25;74.93
54146;BME280;65909;49.422;7.738;2023-04-09T05:50:12;77323.66;;;-145.25;74.88
54146;BME280;65909;49.422;7.738;2023-04-09T05:52:38;77313.63;;;-145.25;74.83
54146;BME280;65909;49.422;7.738;2023-04-09T05:55:03;77319.66;;;-145.25;74.36
54146;BME280;65909;49.422;7.738;2023-04-09T05:57:31;77303.63;;;-145.25;73.78
54146;BME280;65909;49.422;7.738;2023-04-09T05:59:56;77311.63;;;-145.25;74.20
54146;BME280;65909;49.422;7.738;2023-04-09T06:02:23;77315.66;;;-145.25;74.42
54146;BME280;65909;49.422;7.738;2023-04-09T06:04:49;77299.59;;;-145.25;74.25
54146;BME280;65909;49.422;7.738;2023-04-09T06:07:14;77301.59;;;-145.25;74.32
54146;BME280;65909;49.422;7.738;2023-04-09T06:09:40;77289.56;;;-145.25;74.16
54146;BME280;65909;49.422;7.738;2023-04-09T06:12:05;77273.53;;;-145.25;73.59
54146;BME280;65909;49.422;7.738;2023-04-09T06:14:31;77275.53;;;-145.25;73.25
54146;BME280;65909;49.422;7.738;2023-04-09T06:16:58;77279.56;;;-145.25;73.57
54146;BME280;65909;49.422;7.738;2023-04-09T06:19:23;77265.50;;;-145.25;73.48
54146;BME280;65909;49.422;7.738;2023-04-09T06:21:48;77251.47;;;-145.25;72.54
54146;BME280;65909;49.422;7.738;2023-04-09T06:24:14;77259.50;;;-145.25;72.73
54146;BME280;65909;49.422;7.738;2023-04-09T06:26:39;77247.47;;;-145.25;72.83
54146;BME280;65909;49.422;7.738;2023-04-09T06:29:05;77247.47;;;-145.25;72.94
54146;BME280;65909;49.422;7.738;2023-04-09T06:31:30;77237.44;;;-145.25;72.65
54146;BME280;65909;49.422;7.738;2023-04-09T06:33:55;77225.41;;;-145.25;72.72
54146;BME280;65909;49.422;7.738;2023-04-09T06:36:21;77227.41;;;-145.25;72.52
54146;BME280;65909;49.422;7.738;2023-04-09T06:38:47;77227.41;;;-145.25;71.75
54146;BME280;65909;49.422;7.738;2023-04-09T06:41:12;77217.38;;;-145.25;71.57
54146;BME280;65909;49.422;7.738;2023-04-09T06:43:38;77197.34;;;-145.25;71.72
54146;BME280;65909;49.422;7.738;2023-04-09T06:46:05;77193.31;;;-145.25;70.89
54146;BME280;65909;49.422;7.738;2023-04-09T06:48:30;77185.31;;;-145.25;70.81
54146;BME280;65909;49.422;7.738;2023-04-09T06:50:56;77173.28;;;-145.25;70.38
54146;BME280;65909;49.422;7.738;2023-04-09T06:53:21;77193.31;;;-145.25;70.18
54146;BME280;65909;49.422;7.738;2023-04-09T06:55:46;77175.28;;;-145.25;70.06
54146;BME280;65909;49.422;7.738;2023-04-09T06:58:12;77173.28;;;-145.25;70.17
54146;BME280;65909;49.422;7.738;2023-04-09T07:00:37;77159.22;;;-145.25;70.34
54146;BME280;65909;49.422;7.738;2023-04-09T07:03:03;77151.22;;;-145.25;70.04
54146;BME280;65909;49.422;7.738;2023-04-09T07:05:29;77153.22;;;-145.25;69.78
54146;BME280;65909;49.422;7.738;2023-04-09T07:07:55;77131.16;;;-145.25;70.12
54146;BME280;65909;49.422;7.738;2023-04-09T07:10:20;77119.13;;;-145.25;69.47
54146;BME280;65909;49.422;7.738;2023-04-09T07:12:46;77103.09;;;-145.25;68.85
54146;BME280;65909;49.422;7.738;2023-04-09T07:15:11;77083.03;;;-145.25;68.48
54146;BME280;65909;49.422;7.738;2023-04-09T07:17:36;77060.97;;;-145.25;67.79
54146;BME280;65909;49.422;7.738;2023-04-09T07:20:02;77058.97;;;-145.25;67.85
54146;BME280;65909;49.422;7.738;2023-04-09T07:22:28;77024.88;;;-145.25;67.21
54146;BME280;65909;49.422;7.738;2023-04-09T07:24:54;77002.84;;;-145.25;66.63
54146;BME280;65909;49.422;7.738;2023-04-09T07:27:24;76988.78;;;-145.25;66.36
54146;BME280;65909;49.422;7.738;2023-04-09T07:29:50;76956.72;;;-145.25;66.13
54146;BME280;65909;49.422;7.738;2023-04-09T07:32:16;76924.63;;;-145.25;64.50
54146;BME280;65909;49.422;7.738;2023-04-09T07:34:44;76916.63;;;-145.25;64.07
54146;BME280;65909;49.422;7.738;2023-04-09T07:37:09;76898.56;;;-145.25;63.71
54146;BME280;65909;49.422;7.738;2023-04-09T07:39:35;76876.50;;;-145.25;63.58
54146;BME280;65909;49.422;7.738;2023-04-09T07:42:02;76824.38;;;-145.25;62.92
54146;BME280;65909;49.422;7.738;2023-04-09T07:44:28;76768.25;;;-145.25;61.92
54146;BME280;65909;49.422;7.738;2023-04-09T07:46:53;76718.13;;;-145.25;59.85
54146;BME280;65909;49.422;7.738;2023-04-09T07:49:19;76714.09;;;-145.25;58.96
54146;BME280;65909;49.422;7.738;2023-04-09T07:51:46;76714.09;;;-145.25;59.20
54146;BME280;65909;49.422;7.738;2023-04-09T07:54:11;76706.09;;;-145.25;58.84
54146;BME280;65909;49.422;7.738;2023-04-09T07:56:37;76653.97;;;-145.25;58.21
54146;BME280;65909;49.422;7.738;2023-04-09T07:59:02;76635.91;;;-145.25;57.88
54146;BME280;65909;49.422;7.738;2023-04-09T08:01:27;76651.94;;;-145.25;58.31
54146;BME280;65909;49.422;7.738;2023-04-09T08:03:53;76633.91;;;-145.25;57.13
54146;BME280;65909;49.422;7.738;2023-04-09T08:06:18;76641.94;;;-145.25;57.53
54146;BME280;65909;49.422;7.738;2023-04-09T08:08:44;76645.94;;;-145.25;57.48
54146;BME280;65909;49.422;7.738;2023-04-09T08:11:09;76659.97;;;-145.25;58.30
54146;BME280;65909;49.422;7.738;2023-04-09T08:13:35;76682.03;;;-145.25;55.79
54146;BME280;65909;49.422;7.738;2023-04-09T08:16:00;76668.00;;;-145.25;54.99
54146;BME280;65909;49.422;7.738;2023-04-09T08:18:26;76607.84;;;-145.25;53.22
54146;BME280;65909;49.422;7.738;2023-04-09T08:20:52;76569.75;;;-145.25;53.14
54146;BME280;65909;49.422;7.738;2023-04-09T08:23:17;76555.72;;;-145.25;52.36
54146;BME280;65909;49.422;7.738;2023-04-09T08:25:42;76547.69;;;-145.25;52.05
54146;BME280;65909;49.422;7.738;2023-04-09T08:28:08;76535.66;;;-145.25;51.45
54146;BME280;65909;49.422;7.738;2023-04-09T08:30:33;76545.69;;;-145.25;50.55
54146;BME280;65909;49.422;7.738;2023-04-09T08:33:02;76573.75;;;-145.25;50.98
54146;BME280;65909;49.422;7.738;2023-04-09T08:35:29;76553.72;;;-145.25;50.86
54146;BME280;65909;49.422;7.738;2023-04-09T08:37:55;76501.59;;;-145.25;51.32
54146;BME280;65909;49.422;7.738;2023-04-09T08:40:21;76543.69;;;-145.25;50.95
54146;BME280;65909;49.422;7.738;2023-04-09T08:42:52;76551.72;;;-145.25;50.31
54146;BME280;65909;49.422;7.738;2023-04-09T08:45:18;76529.66;;;-145.25;50.69
54146;BME280;65909;49.422;7.738;2023-04-09T08:47:44;76481.53;;;-145.25;49.48
54146;BME280;65909;49.422;7.738;2023-04-09T08:50:13;76517.63;;;-145.25;48.75
54146;BME280;65909;49.422;7.738;2023-04-09T08:52:39;76379.28;;;-145.25;47.26
54146;BME280;65909;49.422;7.738;2023-04-09T08:55:04;76333.19;;;-145.25;45.67
54146;BME280;65909;49.422;7.738;2023-04-09T08:57:38;76349.22;;;-145.25;46.10
54146;BME280;65909;49.422;7.738;2023-04-09T09:00:04;76359.25;;;-145.25;46.88
54146;BME280;65909;49.422;7.738;2023-04-09T09:02:30;76377.28;;;-145.25;46.13
54146;BME280;65909;49.422;7.738;2023-04-09T09:04:55;76311.13;;;-145.25;45.96
54146;BME280;65909;49.422;7.738;2023-04-09T09:07:26;76228.94;;;-145.25;44.96
54146;BME280;65909;49.422;7.738;2023-04-09T09:10:01;76283.06;;;-145.25;45.38
54146;BME280;65909;49.422;7.738;2023-04-09T09:14:57;76285.06;;;-145.25;45.38
54146;BME280;65909;49.422;7.738;2023-04-09T09:17:23;76204.88;;;-145.25;44.58
54146;BME280;65909;49.422;7.738;2023-04-09T09:19:48;76234.94;;;-145.25;44.11
54146;BME280;65909;49.422;7.738;2023-04-09T09:22:13;76164.78;;;-145.25;43.64
54146;BME280;65909;49.422;7.738;2023-04-09T09:24:51;76024.44;;;-145.25;42.36
54146;BME280;65909;49.422;7.738;2023-04-09T09:27:35;75994.38;;;-145.25;42.44
54146;BME280;65909;49.422;7.738;2023-04-09T09:30:05;75834.00;;;-145.25;40.31
54146;BME280;65909;49.422;7.738;2023-04-09T09:32:31;75805.94;;;-145.25;39.91
54146;BME280;65909;49.422;7.738;2023-04-09T09:35:02;75791.91;;;-145.25;38.78
54146;BME280;65909;49.422;7.738;2023-04-09T09:37:28;75739.81;;;-145.25;38.39
54146;BME280;65909;49.422;7.738;2023-04-09T09:39:54;75673.66;;;-145.25;37.61
54146;BME280;65909;49.422;7.738;2023-04-09T09:42:19;75699.72;;;-145.25;37.55
54146;BME280;65909;49.422;7.738;2023-04-09T09:44:45;75763.84;;;-145.25;37.71
54146;BME280;65909;49.422;7.738;2023-04-09T09:47:11;75753.84;;;-145.25;37.16
54146;BME280;65909;49.422;7.738;2023-04-09T09:49:39;75647.59;;;-145.25;36.62
54146;BME280;65909;49.422;7.738;2023-04-09T09:52:10;75615.53;;;-145.25;36.52
54146;BME280;65909;49.422;7.738;2023-04-09T09:54:39;75769.88;;;-145.25;37.53
54146;BME280;65909;49.422;7.738;2023-04-09T09:57:08;75715.75;;;-145.25;37.47
54146;BME280;65909;49.422;7.738;2023-04-09T09:59:37;75757.84;;;-145.25;37.31
54146;BME280;65909;49.422;7.738;2023-04-09T10:02:05;75922.22;;;-145.25;38.82
54146;BME280;65909;49.422;7.738;2023-04-09T10:04:36;75930.22;;;-145.25;38.73
54146;BME280;65909;49.422;7.738;2023-04-09T10:07:04;75928.22;;;-145.25;39.40
54146;BME280;65909;49.422;7.738;2023-04-09T10:09:32;75866.09;;;-145.25;39.12
54146;BME280;65909;49.422;7.738;2023-04-09T10:11:59;75982.34;;;-145.25;39.52
54146;BME280;65909;49.422;7.738;2023-04-09T10:14:25;76090.59;;;-145.25;40.16
54146;BME280;65909;49.422;7.738;2023-04-09T10:16:52;76160.78;;;-145.25;40.62
54146;BME280;65909;49.422;7.738;2023-04-09T10:19:18;76104.63;;;-145.25;40.75
54146;BME280;65909;49.422;7.738;2023-04-09T10:24:10;76118.66;;;-145.25;41.02
54146;BME280;65909;49.422;7.738;2023-04-09T10:26:39;76138.72;;;-145.25;41.91
54146;BME280;65909;49.422;7.738;2023-04-09T10:29:06;76144.72;;;-145.25;41.67
54146;BME280;65909;49.422;7.738;2023-04-09T10:31:52;76238.94;;;-145.25;42.15
54146;BME280;65909;49.422;7.738;2023-04-09T10:34:21;76212.88;;;-145.25;42.29
54146;BME280;65909;49.422;7.738;2023-04-09T10:36:56;76214.91;;;-145.25;42.39
54146;BME280;65909;49.422;7.738;2023-04-09T10:39:26;76271.03;;;-145.25;42.63
54146;BME280;65909;49.422;7.738;2023-04-09T10:41:55;76255.00;;;-145.25;42.95
54146;BME280;65909;49.422;7.738;2023-04-09T10:44:23;76236.94;;;-145.25;43.12
54146;BME280;65909;49.422;7.738;2023-04-09T10:46:51;76228.94;;;-145.25;43.04
54146;BME280;65909;49.422;7.738;2023-04-09T10:49:18;76285.06;;;-145.25;43.17
54146;BME280;65909;49.422;7.738;2023-04-09T10:52:01;76291.06;;;-145.25;44.15
54146;BME280;65909;49.422;7.738;2023-04-09T10:59:47;76218.91;;;-145.25;43.75
54146;BME280;65909;49.422;7.738;2023-04-09T11:05:23;76208.88;;;-145.25;43.89
54146;BME280;65909;49.422;7.738;2023-04-09T11:08:13;76220.91;;;-145.25;43.30
54146;BME280;65909;49.422;7.738;2023-04-09T11:10:43;76196.84;;;-145.25;42.56
54146;BME280;65909;49.422;7.738;2023-04-09T11:13:16;76325.16;;;-145.25;43.39
54146;BME280;65909;49.422;7.738;2023-04-09T11:15:43;76321.16;;;-145.25;43.96
54146;BME280;65909;49.422;7.738;2023-04-09T11:18:22;76281.06;;;-145.25;43.98
54146;BME280;65909;49.422;7.738;2023-04-09T11:20:48;76307.13;;;-145.25;44.12
54146;BME280;65909;49.422;7.738;2023-04-09T11:23:16;76285.06;;;-145.25;43.19
54146;BME280;65909;49.422;7.738;2023-04-09T11:25:41;76248.97;;;-145.25;42.03
54146;BME280;65909;49.422;7.738;2023-04-09T11:28:07;76224.91;;;-145.25;42.28
54146;BME280;65909;49.422;7.738;2023-04-09T11:30:33;76206.88;;;-145.25;42.52
54146;BME280;65909;49.422;7.738;2023-04-09T11:32:59;76263.00;;;-145.25;41.29
54146;BME280;65909;49.422;7.738;2023-04-09T11:35:25;76200.88;;;-145.25;41.85
54146;BME280;65909;49.422;7.738;2023-04-09T11:37:50;76174.81;;;-145.25;42.09
54146;BME280;65909;49.422;7.738;2023-04-09T11:40:21;76180.81;;;-145.25;42.32
54146;BME280;65909;49.422;7.738;2023-04-09T11:42:52;76208.88;;;-145.25;41.73
54146;BME280;65909;49.422;7.738;2023-04-09T11:45:21;76244.97;;;-145.25;41.50
54146;BME280;65909;49.422;7.738;2023-04-09T11:47:47;76216.91;;;-145.25;41.66
54146;BME280;65909;49.422;7.738;2023-04-09T11:50:13;76184.81;;;-145.25;41.45
54146;BME280;65909;49.422;7.738;2023-04-09T11:52:40;76202.88;;;-145.25;41.53
54146;BME280;65909;49.422;7.738;2023-04-09T11:55:07;76170.78;;;-145.25;41.99
54146;BME280;65909;49.422;7.738;2023-04-09T11:57:41;76178.81;;;-145.25;41.62
54146;BME280;65909;49.422;7.738;2023-04-09T12:00:08;76156.75;;;-145.25;41.25
54146;BME280;65909;49.422;7.738;2023-04-09T12:02:37;76178.81;;;-145.25;41.11
54146;BME280;65909;49.422;7.738;2023-04-09T12:05:02;76168.78;;;-145.25;42.05
54146;BME280;65909;49.422;7.738;2023-04-09T12:07:34;76150.75;;;-145.25;41.54
54146;BME280;65909;49.422;7.738;2023-04-09T12:10:07;76174.81;;;-145.25;40.93
54146;BME280;65909;49.422;7.738;2023-04-09T12:12:45;76152.75;;;-145.25;40.84
54146;BME280;65909;49.422;7.738;2023-04-09T12:15:22;76138.72;;;-145.25;40.63
54146;BME280;65909;49.422;7.738;2023-04-09T12:17:49;76114.66;;;-145.25;40.47
54146;BME280;65909;49.422;7.738;2023-04-09T12:20:38;76112.66;;;-145.25;40.11
54146;BME280;65909;49.422;7.738;2023-04-09T12:23:05;76098.63;;;-145.25;40.48
54146;BME280;65909;49.422;7.738;2023-04-09T12:25:34;76128.69;;;-145.25;38.94
54146;BME280;65909;49.422;7.738;2023-04-09T12:28:01;76184.81;;;-145.25;39.68
54146;BME280;65909;49.422;7.738;2023-04-09T12:30:27;76228.94;;;-145.25;39.71
54146;BME280;65909;49.422;7.738;2023-04-09T12:32:53;76198.84;;;-145.25;40.45
54146;BME280;65909;49.422;7.738;2023-04-09T12:35:20;76186.81;;;-145.25;41.42
54146;BME280;65909;49.422;7.738;2023-04-09T12:37:46;76192.84;;;-145.25;40.91
54146;BME280;65909;49.422;7.738;2023-04-09T12:40:12;76277.03;;;-145.25;40.45
54146;BME280;65909;49.422;7.738;2023-04-09T12:42:44;76263.00;;;-145.25;40.56
54146;BME280;65909;49.422;7.738;2023-04-09T12:45:12;76317.13;;;-145.25;39.94
54146;BME280;65909;49.422;7.738;2023-04-09T12:47:37;76319.13;;;-145.25;40.74
54146;BME280;65909;49.422;7.738;2023-04-09T12:50:04;76269.03;;;-145.25;40.71
54146;BME280;65909;49.422;7.738;2023-04-09T12:52:30;76242.97;;;-145.25;40.09
54146;BME280;65909;49.422;7.738;2023-04-09T12:54:55;76220.91;;;-145.25;39.07
54146;BME280;65909;49.422;7.738;2023-04-09T12:57:21;76186.81;;;-145.25;39.37
54146;BME280;65909;49.422;7.738;2023-04-09T12:59:46;76172.78;;;-145.25;38.78
54146;BME280;65909;49.422;7.738;2023-04-09T13:02:11;76144.72;;;-145.25;38.40